Time;durP1;ratioP1;P1;durP2;ratioP2;P2;SDS_P1;SDS_P2;PMS_P1;PMS_P2;Temp;Humidity;BMP_temperature;BMP_pressure;BME280_temperature;BME280_humidity;BME280_pressure;Samples;Min_cycle;Max_cycle;Signal;HPM_P1;HPM_P2
2023/05/11 00:05:22;;;;;;;2.70;1.40;;;;;;;14.05;72.64;98978.50;7444702;39;20258;31
2023/05/11 00:10:42;;;;;;;1.70;1.17;;;;;;;14.06;72.94;98976.62;7401233;39;20236;31
2023/05/11 00:16:13;;;;;;;1.60;1.20;;;;;;;14.02;73.06;98976.19;7441590;39;20265;31
2023/05/11 00:21:44;;;;;;;4.20;1.50;;;;;;;14.09;73.56;98978.94;7384580;39;20247;31
2023/05/11 00:27:19;;;;;;;2.80;1.20;;;;;;;14.12;72.95;98968.56;7361258;39;20547;31
2023/05/11 00:32:55;;;;;;;1.43;1.20;;;;;;;14.03;73.03;98964.31;7379117;39;21264;31
2023/05/11 00:43:35;;;;;;;1.40;1.10;;;;;;;13.98;72.85;98961.34;7445781;39;20397;31
2023/05/11 00:48:52;;;;;;;1.50;1.05;;;;;;;13.99;72.93;98966.59;7419070;39;20250;31
2023/05/11 00:54:25;;;;;;;2.53;1.23;;;;;;;13.91;73.47;98966.69;7420967;39;20253;31
2023/05/11 00:59:57;;;;;;;2.00;1.07;;;;;;;13.89;74.02;98959.81;7462104;39;20277;31
2023/05/11 01:10:48;;;;;;;1.87;1.20;;;;;;;13.91;73.93;98966.69;7468438;39;20254;31
2023/05/11 01:16:23;;;;;;;1.70;1.20;;;;;;;13.89;73.92;98970.63;7462571;39;20262;31
2023/05/11 01:21:55;;;;;;;1.63;1.20;;;;;;;13.82;74.20;98965.13;7422099;39;20235;31
2023/05/11 01:28:10;;;;;;;4.53;1.40;;;;;;;13.80;74.47;98961.78;7431435;39;21094;31
2023/05/11 01:33:43;;;;;;;1.40;1.30;;;;;;;13.79;74.10;98970.94;7319346;39;20360;31
2023/05/11 01:39:15;;;;;;;1.70;1.30;;;;;;;13.87;74.43;98964.56;7177527;39;20307;31
2023/05/11 01:44:50;;;;;;;3.80;1.50;;;;;;;13.78;73.47;98968.41;7399518;39;21239;31
2023/05/11 01:50:26;;;;;;;1.90;1.15;;;;;;;13.70;73.55;98958.56;7418463;39;20333;31
2023/05/11 01:55:58;;;;;;;1.40;1.20;;;;;;;13.63;74.69;98959.53;7377154;39;21252;31
2023/05/11 02:06:38;;;;;;;2.70;1.30;;;;;;;13.62;74.31;98953.28;7421155;39;21544;31
2023/05/11 02:12:13;;;;;;;1.87;1.40;;;;;;;13.56;74.43;98966.75;7452058;39;20252;31
2023/05/11 02:17:45;;;;;;;2.00;1.35;;;;;;;13.49;74.62;98969.38;7448345;39;21211;31
2023/05/11 02:28:22;;;;;;;2.00;1.80;;;;;;;13.29;75.14;98961.03;7400930;39;20504;31
2023/05/11 02:39:01;;;;;;;2.65;1.70;;;;;;;13.12;75.16;98956.81;7449047;39;20360;31
2023/05/11 02:49:39;;;;;;;2.90;1.60;;;;;;;13.27;75.49;98959.53;7442685;39;20266;31
2023/05/11 02:55:14;;;;;;;2.05;1.50;;;;;;;13.14;75.68;98964.78;7423320;39;20279;31
2023/05/11 03:00:46;;;;;;;3.20;1.80;;;;;;;13.20;75.86;98959.47;7414500;39;20238;31
2023/05/11 03:06:20;;;;;;;3.57;2.07;;;;;;;13.25;75.57;98959.69;7399107;39;20250;31
2023/05/11 03:11:52;;;;;;;1.90;1.70;;;;;;;13.26;76.05;98960.53;7400359;39;20243;31
2023/05/11 03:17:24;;;;;;;3.00;1.90;;;;;;;13.30;75.32;98964.53;7368918;39;20318;31
2023/05/11 03:22:57;;;;;;;5.43;2.47;;;;;;;13.27;75.27;98960.38;7377822;39;21231;31
2023/05/11 03:28:29;;;;;;;2.90;2.30;;;;;;;13.17;76.08;98967.94;7394015;39;20269;31
2023/05/11 03:34:01;;;;;;;3.70;2.30;;;;;;;13.19;75.79;98963.19;7369715;39;20274;31
2023/05/11 03:39:32;;;;;;;5.95;3.15;;;;;;;13.18;76.10;98961.50;7392424;39;20232;31
2023/05/11 03:45:05;;;;;;;3.97;2.90;;;;;;;13.14;75.94;98964.78;7387136;39;21368;31
2023/05/11 03:50:37;;;;;;;4.30;3.40;;;;;;;13.13;75.89;98952.25;7384001;39;21364;31
2023/05/11 03:56:10;;;;;;;4.40;3.40;;;;;;;13.17;76.14;98948.16;7402258;39;21224;31
2023/05/11 04:01:57;;;;;;;4.70;3.20;;;;;;;13.22;75.72;98948.41;7377570;39;21307;31
2023/05/11 04:12:37;;;;;;;4.40;3.60;;;;;;;13.17;75.94;98951.69;7464750;39;20500;31
2023/05/11 04:18:09;;;;;;;4.60;4.00;;;;;;;13.07;76.19;98951.13;7409514;39;20256;31
2023/05/11 04:23:41;;;;;;;5.30;4.80;;;;;;;13.12;75.75;98948.72;7400459;39;20255;31
2023/05/11 04:29:14;;;;;;;6.37;4.47;;;;;;;13.08;76.30;98948.22;7396269;39;21166;31
2023/05/11 04:39:51;;;;;;;6.25;4.00;;;;;;;13.16;75.59;98955.44;7396465;39;20277;31
2023/05/11 04:50:32;;;;;;;7.30;3.80;;;;;;;13.05;76.04;98947.78;7462025;39;20270;31
2023/05/11 04:55:49;;;;;;;5.60;3.70;;;;;;;13.08;75.87;98952.78;7424188;39;20380;31
2023/05/11 05:01:10;;;;;;;4.75;3.40;;;;;;;13.04;75.66;98946.09;7381000;39;20224;31
2023/05/11 05:06:43;;;;;;;3.90;3.50;;;;;;;12.82;76.45;98947.88;7400236;39;21213;31
2023/05/11 05:12:01;;;;;;;5.20;3.90;;;;;;;12.84;76.56;98951.25;7377750;39;20266;31
2023/05/11 05:17:32;;;;;;;4.57;3.37;;;;;;;12.86;76.89;98954.59;7384053;39;20323;31
2023/05/11 05:23:09;;;;;;;5.04;3.72;;;;;;;12.78;77.38;98949.28;7382455;39;21020;31
2023/05/11 05:28:26;;;;;;;4.30;3.60;;;;;;;12.81;77.03;98958.91;7429567;39;20317;31
2023/05/11 05:34:01;;;;;;;4.40;3.60;;;;;;;13.02;76.85;98962.53;7419659;39;20370;31
2023/05/11 05:39:37;;;;;;;3.85;3.20;;;;;;;13.01;77.04;98971.66;7435573;39;20288;31
2023/05/11 05:44:55;;;;;;;4.00;3.40;;;;;;;13.09;76.26;98971.56;7434511;39;20277;31
2023/05/11 05:50:16;;;;;;;5.00;3.60;;;;;;;13.10;76.27;98977.81;7422666;39;20246;31
2023/05/11 05:55:51;;;;;;;7.17;3.80;;;;;;;13.09;76.21;98984.25;7445939;39;20333;31
2023/05/11 06:01:11;;;;;;;5.10;4.00;;;;;;;13.03;75.81;98987.72;7375282;39;20251;31
2023/05/11 06:06:31;;;;;;;8.25;4.50;;;;;;;13.03;76.78;98985.81;7421260;39;20257;31
2023/05/11 06:12:04;;;;;;;5.80;4.40;;;;;;;13.10;76.63;98980.50;7422001;39;20242;31
2023/05/11 06:17:39;;;;;;;4.53;3.80;;;;;;;13.18;76.17;98983.16;7421563;39;20242;31
2023/05/11 06:23:14;;;;;;;6.17;4.10;;;;;;;13.23;76.38;98993.41;7379795;39;20257;31
2023/05/11 06:28:44;;;;;;;4.93;3.93;;;;;;;13.27;76.50;98992.84;7378358;39;20259;31
2023/05/11 06:34:04;;;;;;;4.17;3.63;;;;;;;13.38;76.14;98995.06;7359093;39;20248;31
2023/05/11 06:39:37;;;;;;;6.75;3.55;;;;;;;13.44;76.03;99001.59;7407282;39;21212;31
2023/05/11 06:45:11;;;;;;;3.90;3.50;;;;;;;13.53;75.75;99003.16;7401107;39;20430;31
2023/05/11 06:50:31;;;;;;;4.00;3.65;;;;;;;13.60;75.13;99008.66;7387331;39;20513;31
2023/05/11 06:56:02;;;;;;;5.30;4.20;;;;;;;13.65;74.27;99000.78;7379987;39;20469;31
2023/05/11 07:01:35;;;;;;;5.05;4.05;;;;;;;13.65;75.26;98996.22;7382564;39;20233;31
2023/05/11 07:06:55;;;;;;;6.15;4.85;;;;;;;13.66;74.64;99003.31;7419652;39;20251;31
2023/05/11 07:12:13;;;;;;;6.20;4.75;;;;;;;13.52;74.92;99007.72;7461533;39;21325;31
2023/05/11 07:17:49;;;;;;;7.30;4.73;;;;;;;13.77;75.38;99004.69;7463841;39;20365;31
2023/05/11 07:23:09;;;;;;;5.25;4.60;;;;;;;13.96;73.89;99013.03;7422190;39;20346;31
2023/05/11 07:28:27;;;;;;;6.70;4.30;;;;;;;14.10;73.40;99013.16;7425380;39;21240;31
2023/05/11 07:34:04;;;;;;;5.10;4.40;;;;;;;14.23;73.04;99008.69;7443618;39;20377;31
2023/05/11 07:39:24;;;;;;;5.57;4.63;;;;;;;14.40;72.82;99012.84;7444464;39;20250;31
2023/05/11 07:44:45;;;;;;;5.25;4.25;;;;;;;14.47;72.42;99012.06;7485214;39;20245;31
2023/05/11 07:50:20;;;;;;;4.65;3.90;;;;;;;14.47;71.85;99006.66;7481687;39;21293;31
2023/05/11 07:55:40;;;;;;;4.73;4.03;;;;;;;14.61;71.49;99013.88;7429201;39;20369;31
2023/05/11 08:01:12;;;;;;;17.50;11.00;;;;;;;14.64;71.26;99005.31;7399269;39;21266;31
2023/05/11 08:06:45;;;;;;;5.35;4.35;;;;;;;14.71;71.13;98998.06;7398831;39;22099;31
2023/05/11 08:12:02;;;;;;;6.47;3.43;;;;;;;14.77;71.85;99018.97;7361483;39;20410;31
2023/05/11 08:17:36;;;;;;;5.15;3.45;;;;;;;14.78;70.35;99009.81;7366822;39;21293;31
2023/05/11 08:23:16;;;;;;;5.45;3.45;;;;;;;14.71;70.88;99019.75;7397232;39;22008;31
2023/05/11 08:28:28;;;;;;;4.20;3.70;;;;;;;14.58;71.09;99022.38;7466835;38;22110;31
2023/05/11 08:33:46;;;;;;;6.57;3.50;;;;;;;14.64;70.64;99025.16;7462397;39;21465;31
2023/05/11 08:44:24;;;;;;;3.90;3.40;;;;;;;14.72;70.70;99021.44;7275921;39;20381;31
2023/05/11 08:49:57;;;;;;;5.75;3.55;;;;;;;14.76;70.06;99018.16;7419079;39;21259;31
2023/05/11 08:55:28;;;;;;;5.07;3.77;;;;;;;14.85;70.54;99025.09;7390167;39;20407;31
2023/05/11 09:01:02;;;;;;;4.60;3.90;;;;;;;14.96;70.04;99018.28;7356658;39;20394;31
2023/05/11 09:11:38;;;;;;;4.07;3.27;;;;;;;15.08;69.16;99024.84;7440325;39;20263;31
2023/05/11 09:17:11;;;;;;;4.40;3.30;;;;;;;15.15;69.00;99017.56;7364381;39;20278;31
2023/05/11 09:22:46;;;;;;;4.80;3.13;;;;;;;15.26;67.91;99011.56;7382893;39;21060;31
2023/05/11 09:28:04;;;;;;;5.70;3.35;;;;;;;15.46;68.06;99008.09;7378199;39;21876;31
2023/05/11 09:33:35;;;;;;;5.00;3.70;;;;;;;15.34;67.93;98996.97;7378774;39;20384;31
2023/05/11 09:38:52;;;;;;;4.53;3.80;;;;;;;15.25;69.00;99009.87;7359694;39;20244;31
2023/05/11 09:44:24;;;;;;;6.10;3.95;;;;;;;15.17;68.63;98996.50;7383183;39;20445;31
2023/05/11 09:49:55;;;;;;;5.30;3.50;;;;;;;15.28;69.03;99012.19;7340080;39;20326;31
2023/05/11 09:55:30;;;;;;;4.10;3.70;;;;;;;15.48;68.23;99001.44;7301594;39;20276;31
2023/05/11 10:00:54;;;;;;;6.33;3.60;;;;;;;15.56;67.90;99000.44;7360291;39;20381;31
2023/05/11 10:06:28;;;;;;;7.70;4.30;;;;;;;15.50;68.02;99007.53;7407212;39;20250;31
2023/05/11 10:12:03;;;;;;;5.63;4.03;;;;;;;15.51;67.77;98995.63;7449041;39;20283;31
2023/05/11 10:17:43;;;;;;;6.87;4.10;;;;;;;15.65;67.51;98996.50;7488525;38;20252;31
2023/05/11 10:23:13;;;;;;;4.70;3.85;;;;;;;15.67;67.59;98988.97;7469370;39;20242;31
2023/05/11 10:28:47;;;;;;;6.87;3.70;;;;;;;15.76;66.45;98985.03;7442322;39;20484;31
2023/05/11 10:34:22;;;;;;;3.90;3.50;;;;;;;15.89;66.38;98981.50;7420631;39;20283;31
2023/05/11 10:39:52;;;;;;;5.60;3.45;;;;;;;15.92;66.35;98979.25;7377399;39;22159;31
2023/05/11 10:45:28;;;;;;;5.30;3.60;;;;;;;15.90;66.48;98978.59;7417446;39;21371;31
2023/05/11 10:51:12;;;;;;;4.90;3.70;;;;;;;15.92;65.93;98984.69;7420159;39;20367;31
2023/05/11 10:57:16;;;;;;;4.80;4.00;;;;;;;16.06;65.42;98982.81;7453256;39;21112;31
2023/05/11 11:02:48;;;;;;;6.30;4.45;;;;;;;16.07;66.63;98974.44;7384501;39;20369;31
2023/05/11 11:13:24;;;;;;;6.23;4.03;;;;;;;16.25;65.87;98971.09;7436312;39;20353;31
2023/05/11 11:19:00;;;;;;;4.90;3.90;;;;;;;16.34;65.25;98972.56;7414057;39;20274;31
2023/05/11 11:24:58;;;;;;;3.93;3.40;;;;;;;16.55;65.74;98966.06;7401356;39;20278;31
2023/05/11 11:30:32;;;;;;;7.55;3.90;;;;;;;16.53;64.20;98957.31;7381936;39;20278;31
2023/05/11 11:35:49;;;;;;;4.75;3.90;;;;;;;16.66;64.83;98954.59;7345933;39;20247;31
2023/05/11 11:41:23;;;;;;;3.80;3.30;;;;;;;16.46;63.97;98959.16;7389892;39;20251;31
2023/05/11 11:46:58;;;;;;;5.40;4.10;;;;;;;16.33;65.05;98956.44;7417660;39;20252;31
2023/05/11 11:52:46;;;;;;;5.35;4.15;;;;;;;16.30;64.97;98951.44;7423418;39;20245;31
2023/05/11 11:58:04;;;;;;;4.50;3.70;;;;;;;16.32;65.25;98952.09;7462169;39;20506;31
2023/05/11 12:03:41;;;;;;;4.33;3.57;;;;;;;16.12;65.19;98944.75;7465534;39;20250;31
2023/05/11 12:09:15;;;;;;;6.00;4.20;;;;;;;16.07;66.51;98944.53;7422110;39;20270;31
2023/05/11 12:19:58;;;;;;;4.83;4.00;;;;;;;16.28;67.09;98948.09;7470581;39;20269;31
2023/05/11 12:25:30;;;;;;;5.90;4.60;;;;;;;16.39;67.82;98934.72;7487451;38;20297;31
2023/05/11 12:31:05;;;;;;;5.87;4.27;;;;;;;16.51;66.27;98924.00;7460914;39;21046;31
2023/05/11 12:36:38;;;;;;;7.23;4.70;;;;;;;16.68;65.81;98934.28;7418950;39;22077;31
2023/05/11 12:41:58;;;;;;;6.90;4.07;;;;;;;16.80;65.89;98925.47;7428750;39;20336;31
2023/05/11 12:47:34;;;;;;;6.50;4.70;;;;;;;16.81;64.01;98922.53;7420789;39;20346;31
2023/05/11 12:53:07;;;;;;;7.20;4.60;;;;;;;16.88;64.95;98904.31;7362332;39;20424;31
2023/05/11 12:58:42;;;;;;;7.50;4.50;;;;;;;17.02;65.33;98905.94;7349555;39;21271;31
2023/05/11 13:04:00;;;;;;;8.25;4.45;;;;;;;17.14;63.89;98908.81;7380452;39;21315;31
2023/05/11 13:09:38;;;;;;;5.45;4.00;;;;;;;17.01;63.69;98906.97;7451509;39;20463;31
2023/05/11 13:15:18;;;;;;;5.10;4.00;;;;;;;17.19;63.96;98897.28;7419117;39;20473;31
2023/05/11 13:20:52;;;;;;;5.10;4.20;;;;;;;17.41;64.44;98896.75;7440735;39;21308;31
2023/05/11 13:26:28;;;;;;;5.07;4.00;;;;;;;17.38;62.62;98886.25;7402859;39;20397;31
2023/05/11 13:32:01;;;;;;;4.93;3.97;;;;;;;17.42;64.05;98887.50;7383244;39;21354;31
2023/05/11 13:37:19;;;;;;;7.50;4.10;;;;;;;17.27;61.56;98888.84;7414989;39;21236;31
2023/05/11 13:42:55;;;;;;;6.73;4.17;;;;;;;17.23;63.04;98885.72;7467854;39;20303;31
2023/05/11 13:48:16;;;;;;;5.00;3.85;;;;;;;17.20;64.14;98882.59;7411581;39;20235;31
2023/05/11 13:53:37;;;;;;;4.20;3.80;;;;;;;17.30;63.31;98872.06;7495034;38;20293;31
2023/05/11 14:04:19;;;;;;;6.97;3.93;;;;;;;17.34;64.55;98859.66;7514901;38;21095;31
2023/05/11 14:09:51;;;;;;;6.63;4.30;;;;;;;17.52;63.39;98855.16;7481128;39;21998;31
2023/05/11 14:20:31;;;;;;;5.20;3.58;;;;;;;17.68;62.26;98859.28;7377119;39;20250;31
2023/05/11 14:26:03;;;;;;;5.00;3.60;;;;;;;17.86;62.31;98856.63;7388809;39;20315;31
2023/05/11 14:31:35;;;;;;;4.20;3.40;;;;;;;17.99;61.94;98839.31;7421281;39;20487;31
2023/05/11 14:42:13;;;;;;;4.13;3.73;;;;;;;17.97;62.90;98839.56;7423459;39;20269;31
2023/05/11 14:47:49;;;;;;;5.85;3.75;;;;;;;17.95;61.94;98841.66;7480465;38;20368;31
2023/05/11 14:53:22;;;;;;;9.10;3.90;;;;;;;17.93;62.00;98838.34;7419956;39;21529;31
2023/05/11 14:58:58;;;;;;;5.00;3.30;;;;;;;17.91;62.17;98847.78;7357835;39;21128;31
2023/05/11 15:09:20;;;;;;;4.03;2.80;;;;;;;17.75;62.37;98843.72;7412252;39;20244;31
2023/05/11 15:14:54;;;;;;;4.50;3.10;;;;;;;17.66;60.51;98855.09;7435592;39;21306;31
2023/05/11 15:20:30;;;;;;;4.60;2.93;;;;;;;17.54;61.37;98839.44;7451706;38;20246;31
2023/05/11 15:26:02;;;;;;;3.35;2.75;;;;;;;17.55;61.63;98853.91;7482113;39;20284;31
2023/05/11 15:31:36;;;;;;;5.40;3.20;;;;;;;17.39;62.10;98854.41;7443321;39;21324;31
2023/05/11 15:36:53;;;;;;;5.40;3.10;;;;;;;17.29;61.96;98848.63;7234899;39;21049;31
2023/05/11 15:42:28;;;;;;;4.00;3.30;;;;;;;17.24;62.61;98845.69;7448905;39;20325;31
2023/05/11 15:48:02;;;;;;;6.40;2.50;;;;;;;17.28;62.27;98841.50;7443862;39;21234;31
2023/05/11 15:53:35;;;;;;;3.70;2.90;;;;;;;17.29;61.40;98848.63;7443569;39;21198;31
2023/05/11 15:59:08;;;;;;;3.40;2.70;;;;;;;17.40;61.85;98846.03;7461033;39;21163;31
2023/05/11 16:04:41;;;;;;;4.90;2.95;;;;;;;17.33;61.69;98849.84;7465425;39;20248;31
2023/05/11 16:10:14;;;;;;;4.63;3.20;;;;;;;17.20;61.97;98850.72;7403232;39;21359;31
2023/05/11 16:15:46;;;;;;;3.87;2.97;;;;;;;17.19;62.94;98857.25;7339737;39;20251;31
2023/05/11 16:21:20;;;;;;;3.97;3.13;;;;;;;17.08;62.95;98866.94;7390649;39;20980;31
2023/05/11 16:26:55;;;;;;;4.10;2.20;;;;;;;16.83;65.66;98855.09;7398284;39;20254;31
2023/05/11 16:32:28;;;;;;;3.00;2.20;;;;;;;16.70;67.31;98860.59;7387168;39;21209;31
2023/05/11 16:38:04;;;;;;;2.70;1.90;;;;;;;16.37;69.25;98854.34;7401389;39;20244;31
2023/05/11 16:43:41;;;;;;;2.10;1.90;;;;;;;16.15;69.74;98851.03;7465554;38;20217;31
2023/05/11 16:49:15;;;;;;;2.60;2.10;;;;;;;15.95;68.16;98856.50;7492169;38;20338;31
2023/05/11 16:54:48;;;;;;;3.75;1.60;;;;;;;15.54;68.93;98863.97;7399843;39;20239;31
2023/05/11 17:00:21;;;;;;;2.20;1.90;;;;;;;15.75;70.85;98866.53;7378679;39;20334;31
2023/05/11 17:05:56;;;;;;;2.95;2.15;;;;;;;15.89;70.37;98856.47;7377990;39;20264;31
2023/05/11 17:11:33;;;;;;;1.63;1.50;;;;;;;15.91;70.09;98863.38;7441701;39;21329;31
2023/05/11 17:17:06;;;;;;;4.40;1.60;;;;;;;15.82;69.60;98856.47;7427194;39;21363;31
2023/05/11 17:22:38;;;;;;;3.40;1.20;;;;;;;15.80;70.24;98864.00;7445213;39;20349;31
2023/05/11 17:28:12;;;;;;;2.77;1.57;;;;;;;15.62;69.41;98869.22;7424297;39;21219;31
2023/05/11 17:33:44;;;;;;;2.00;1.80;;;;;;;15.56;70.87;98886.34;7417312;39;22126;31
2023/05/11 17:44:38;;;;;;;4.20;2.50;;;;;;;14.95;76.30;98883.63;7438427;39;20277;31
2023/05/11 17:55:02;;;;;;;2.90;2.00;;;;;;;15.13;75.38;98886.63;7421413;39;20279;31
2023/05/11 18:05:38;;;;;;;4.83;2.50;;;;;;;15.31;75.38;98884.16;7396558;39;20279;31
2023/05/11 18:16:04;;;;;;;2.35;2.15;;;;;;;15.24;75.30;98886.00;7466101;38;20400;31
2023/05/11 18:26:53;;;;;;;3.73;2.10;;;;;;;15.22;75.87;98900.84;7441546;39;20418;31
2023/05/11 18:32:14;;;;;;;4.17;2.10;;;;;;;15.27;75.80;98907.31;7357394;39;21092;31
2023/05/11 18:37:46;;;;;;;3.40;2.60;;;;;;;15.21;75.47;98907.31;7393478;39;20258;31
2023/05/11 18:43:19;;;;;;;3.00;2.75;;;;;;;15.18;75.84;98907.72;7452300;39;20286;31
2023/05/11 18:48:51;;;;;;;4.10;2.90;;;;;;;15.17;76.06;98901.47;7438476;39;20246;31
2023/05/11 18:54:11;;;;;;;2.70;2.35;;;;;;;15.22;75.69;98915.28;7441857;39;20244;31
2023/05/11 18:59:47;;;;;;;3.20;2.10;;;;;;;15.18;75.46;98910.44;7495815;38;21155;31
2023/05/11 19:05:18;;;;;;;4.10;2.20;;;;;;;15.13;75.88;98913.78;7504774;38;21457;31
2023/05/11 19:10:54;;;;;;;2.33;2.13;;;;;;;15.12;75.63;98917.50;7400052;39;21422;31
2023/05/11 19:16:31;;;;;;;2.90;2.10;;;;;;;15.05;76.81;98919.34;7400910;39;21263;31
2023/05/11 19:21:51;;;;;;;2.20;2.00;;;;;;;14.99;76.92;98931.03;7378485;39;20243;31
2023/05/11 19:27:07;;;;;;;2.35;2.05;;;;;;;14.99;76.93;98925.59;7366671;39;20346;31
2023/05/11 19:32:43;;;;;;;2.60;2.20;;;;;;;14.95;76.24;98929.75;7421403;39;20349;31
2023/05/11 19:38:19;;;;;;;3.70;2.10;;;;;;;14.94;76.96;98944.34;7419443;39;21334;31
2023/05/11 19:43:40;;;;;;;3.70;2.50;;;;;;;14.93;77.35;98948.09;7440352;39;20239;31
2023/05/11 19:49:13;;;;;;;4.27;2.80;;;;;;;14.86;77.05;98950.78;7439468;39;20252;31
2023/05/11 19:54:31;;;;;;;3.20;2.80;;;;;;;14.74;77.10;98954.28;7444488;39;21206;31
2023/05/11 19:59:49;;;;;;;4.00;3.10;;;;;;;14.70;77.13;98953.00;7402929;39;20431;31
2023/05/11 20:05:26;;;;;;;3.13;2.83;;;;;;;14.60;77.99;98955.22;7421928;39;20349;31
2023/05/11 20:10:43;;;;;;;3.95;3.40;;;;;;;14.55;77.53;98963.94;7423711;39;20247;31
2023/05/11 20:16:13;;;;;;;3.70;3.10;;;;;;;14.56;77.51;98968.34;7397598;39;20244;31
2023/05/11 20:21:49;;;;;;;3.90;3.50;;;;;;;14.52;77.81;98960.78;7375040;39;20343;31
2023/05/11 20:27:09;;;;;;;4.30;3.90;;;;;;;14.55;78.30;98958.53;7337151;39;21395;31
2023/05/11 20:32:25;;;;;;;5.45;4.40;;;;;;;14.48;78.23;98962.22;7378879;39;20422;31
2023/05/11 20:38:01;;;;;;;4.87;4.40;;;;;;;14.33;79.28;98957.69;7432007;38;20258;31
2023/05/11 20:43:37;;;;;;;4.90;4.40;;;;;;;14.24;79.59;98955.31;7489193;39;20233;31
2023/05/11 20:49:14;;;;;;;6.40;4.20;;;;;;;14.24;79.61;98950.75;7506904;38;20249;31
2023/05/11 20:54:52;;;;;;;6.45;4.50;;;;;;;14.21;79.83;98951.13;7510330;38;20237;31
2023/05/11 21:00:23;;;;;;;5.95;4.25;;;;;;;14.27;79.82;98950.34;7442397;39;20356;31
2023/05/11 21:05:40;;;;;;;4.30;3.90;;;;;;;14.38;79.57;98949.84;7378767;39;20330;31
2023/05/11 21:11:16;;;;;;;5.27;4.20;;;;;;;14.39;79.64;98948.78;7401031;39;20262;31
2023/05/11 21:16:37;;;;;;;3.80;3.40;;;;;;;14.39;79.59;98950.69;7397056;39;21309;31
2023/05/11 21:27:15;;;;;;;3.00;2.70;;;;;;;14.38;79.43;98933.59;7418389;39;20356;31
2023/05/11 21:32:35;;;;;;;2.60;2.40;;;;;;;14.32;80.40;98945.16;7403848;39;20258;31
2023/05/11 21:37:56;;;;;;;2.77;2.50;;;;;;;14.33;79.42;98954.16;7444531;39;20333;31
2023/05/11 21:43:28;;;;;;;3.30;2.60;;;;;;;14.26;79.56;98945.94;7428440;38;20284;31
2023/05/11 21:49:03;;;;;;;3.43;2.80;;;;;;;14.23;79.92;98949.06;7418765;39;20280;31
2023/05/11 21:54:21;;;;;;;3.80;3.08;;;;;;;14.24;80.02;98948.03;7398835;39;20278;31
2023/05/11 21:59:56;;;;;;;2.80;2.50;;;;;;;14.15;80.22;98937.53;7384911;39;20235;31
2023/05/11 22:05:29;;;;;;;3.00;2.70;;;;;;;14.04;80.71;98930.75;7422172;39;21173;31
2023/05/11 22:11:04;;;;;;;3.10;2.70;;;;;;;14.11;80.32;98937.06;7445579;39;20366;31
2023/05/11 22:16:38;;;;;;;2.90;2.60;;;;;;;14.05;80.96;98931.59;7255978;39;21116;31
2023/05/11 22:22:13;;;;;;;3.25;2.75;;;;;;;14.06;81.19;98936.81;7443179;39;20294;31
2023/05/11 22:27:30;;;;;;;4.05;2.65;;;;;;;14.10;80.37;98938.09;7379016;39;21359;31
2023/05/11 22:33:06;;;;;;;3.70;2.80;;;;;;;14.04;80.10;98936.16;7367286;39;20383;31
2023/05/11 22:38:23;;;;;;;4.70;2.80;;;;;;;14.08;80.36;98940.19;7358091;39;20257;31
2023/05/11 22:43:44;;;;;;;6.75;3.20;;;;;;;14.05;80.69;98940.56;7381680;39;20247;31
2023/05/11 22:49:20;;;;;;;3.65;3.10;;;;;;;13.91;81.12;98939.59;7397815;39;20241;31
2023/05/11 22:54:53;;;;;;;3.65;3.20;;;;;;;13.87;80.85;98938.31;7424017;39;21288;31
2023/05/11 23:00:30;;;;;;;3.93;3.47;;;;;;;13.89;81.51;98949.81;7408073;39;20407;31
2023/05/11 23:06:02;;;;;;;4.03;3.63;;;;;;;13.89;81.44;98943.53;7379664;39;20244;31
2023/05/11 23:11:20;;;;;;;2.90;2.70;;;;;;;13.90;81.33;98945.22;7392261;39;21390;31
2023/05/11 23:21:57;;;;;;;3.60;2.40;;;;;;;13.93;81.35;98948.38;7380537;39;20243;31
2023/05/11 23:27:16;;;;;;;3.30;2.70;;;;;;;14.00;80.63;98943.00;7380752;39;21403;31
2023/05/11 23:32:50;;;;;;;4.00;3.07;;;;;;;13.99;80.73;98935.94;7441990;39;20388;31
2023/05/11 23:38:24;;;;;;;3.35;3.05;;;;;;;13.96;81.27;98931.72;7399541;39;20272;31
2023/05/11 23:43:59;;;;;;;3.60;3.27;;;;;;;13.94;81.14;98925.69;7401032;39;20402;31
2023/05/11 23:49:31;;;;;;;5.00;3.20;;;;;;;13.95;80.95;98938.16;7439461;39;21256;31
2023/05/11 23:55:08;;;;;;;3.83;3.37;;;;;;;13.92;81.90;98932.31;7462660;39;20471;31
